Time;durP1;ratioP1;P1;durP2;ratioP2;P2;SDS_P1;SDS_P2;PMS_P1;PMS_P2;Temp;Humidity;BMP_temperature;BMP_pressure;BME280_temperature;BME280_humidity;BME280_pressure;Samples;Min_cycle;Max_cycle;Signal;HPM_P1;HPM_P2
2022/11/10 00:01:50;;;;;;;15.25;4.28;;;14.00;99.90;;;;;;5054868;28;20425;-75
2022/11/10 00:04:16;;;;;;;15.57;3.78;;;14.00;99.90;;;;;;5055865;28;20033;-70
2022/11/10 00:06:43;;;;;;;11.27;3.88;;;14.00;99.90;;;;;;5055312;28;20025;-70
2022/11/10 00:09:09;;;;;;;12.50;3.72;;;14.10;99.90;;;;;;5055869;28;20488;-69
2022/11/10 00:11:34;;;;;;;14.60;3.15;;;14.00;99.90;;;;;;5055646;28;20096;-69
2022/11/10 00:19:31;;;;;;;15.40;3.50;;;13.90;99.90;;;;;;5055706;28;20028;-71
2022/11/10 00:21:57;;;;;;;14.70;3.53;;;13.90;99.90;;;;;;5053991;28;20021;-74
2022/11/10 00:24:24;;;;;;;12.35;3.67;;;13.90;99.90;;;;;;5055683;28;20530;-74
2022/11/10 00:26:50;;;;;;;11.32;3.03;;;13.90;99.90;;;;;;5054074;28;20496;-74
2022/11/10 00:29:15;;;;;;;11.57;3.10;;;13.90;99.90;;;;;;5055575;28;20036;-74
2022/11/10 00:31:41;;;;;;;11.82;3.20;;;13.90;99.90;;;;;;5055221;28;20029;-72
2022/11/10 00:34:10;;;;;;;17.35;3.40;;;13.90;99.90;;;;;;5055319;28;20033;-70
2022/11/10 00:36:36;;;;;;;8.82;2.63;;;13.80;99.90;;;;;;5055276;28;20032;-70
2022/11/10 00:39:01;;;;;;;13.23;3.38;;;13.90;99.90;;;;;;5055262;28;20040;-71
2022/11/10 00:41:27;;;;;;;14.82;3.63;;;13.80;99.90;;;;;;5054936;28;20031;-72
2022/11/10 00:43:52;;;;;;;11.60;3.25;;;13.80;99.90;;;;;;5055208;28;20025;-71
2022/11/10 00:46:18;;;;;;;14.43;3.60;;;13.90;99.90;;;;;;5055017;28;20025;-72
2022/11/10 00:48:44;;;;;;;15.55;3.80;;;13.90;99.90;;;;;;5054768;28;20033;-71
2022/11/10 00:51:20;;;;;;;14.50;3.10;;;13.90;99.90;;;;;;5054893;28;20021;-71
2022/11/10 00:53:46;;;;;;;20.17;3.35;;;13.80;99.90;;;;;;5054831;28;20370;-72
2022/11/10 00:56:11;;;;;;;13.35;2.90;;;13.80;99.90;;;;;;5054833;28;20530;-71
2022/11/10 00:58:37;;;;;;;12.77;3.45;;;13.70;99.90;;;;;;5054803;28;20467;-71
2022/11/10 01:01:04;;;;;;;12.27;2.85;;;13.80;99.90;;;;;;5054758;28;20100;-70
2022/11/10 01:03:30;;;;;;;11.38;2.80;;;13.80;99.90;;;;;;5052950;28;20037;-71
2022/11/10 01:05:55;;;;;;;16.20;2.50;;;13.70;99.90;;;;;;5054632;28;20108;-70
2022/11/10 01:08:21;;;;;;;12.52;2.53;;;13.70;99.90;;;;;;5054608;28;20040;-71
2022/11/10 01:10:47;;;;;;;17.88;2.92;;;13.70;99.90;;;;;;5054631;28;20080;-70
2022/11/10 01:13:12;;;;;;;15.38;2.35;;;13.70;99.90;;;;;;5054106;28;20029;-74
2022/11/10 01:15:39;;;;;;;12.93;2.75;;;13.70;99.90;;;;;;5054705;28;20111;-72
2022/11/10 01:18:05;;;;;;;9.63;2.30;;;13.70;99.90;;;;;;5054052;28;20028;-70
2022/11/10 01:20:32;;;;;;;10.13;2.35;;;13.60;99.90;;;;;;5054322;28;20029;-70
2022/11/10 01:22:58;;;;;;;14.93;3.58;;;13.60;99.90;;;;;;5054592;28;20021;-69
2022/11/10 01:25:23;;;;;;;9.88;2.53;;;13.60;99.90;;;;;;5053247;28;20366;-70
2022/11/10 01:27:50;;;;;;;11.23;2.13;;;13.70;99.90;;;;;;5054189;28;20058;-70
2022/11/10 01:30:16;;;;;;;14.70;3.13;;;13.60;99.90;;;;;;5052835;28;20033;-69
2022/11/10 01:32:42;;;;;;;13.18;4.10;;;13.60;99.90;;;;;;5053767;28;20035;-72
2022/11/10 01:35:08;;;;;;;10.85;3.08;;;13.60;99.90;;;;;;5054142;28;20469;-69
2022/11/10 01:37:33;;;;;;;8.77;2.40;;;13.70;99.90;;;;;;5053034;28;20025;-71
2022/11/10 01:39:59;;;;;;;10.30;2.90;;;13.70;99.90;;;;;;5053978;28;20028;-70
2022/11/10 01:42:27;;;;;;;11.13;2.58;;;13.60;99.90;;;;;;5052783;28;20028;-70
2022/11/10 01:45:23;;;;;;;15.00;3.08;;;13.60;99.90;;;;;;5054453;28;20032;-72
2022/11/10 01:48:09;;;;;;;9.75;2.45;;;13.60;99.90;;;;;;5053498;28;20025;-69
2022/11/10 01:50:38;;;;;;;11.02;2.50;;;13.60;99.90;;;;;;5051795;28;20119;-69
2022/11/10 01:53:07;;;;;;;12.68;2.47;;;13.60;99.90;;;;;;5053682;28;20020;-69
2022/11/10 01:55:34;;;;;;;10.80;3.20;;;13.60;99.90;;;;;;5052730;28;20032;-69
2022/11/10 01:58:00;;;;;;;11.18;3.17;;;13.60;99.90;;;;;;5053579;28;20496;-71
2022/11/10 02:00:26;;;;;;;12.43;3.28;;;13.50;99.90;;;;;;5053236;28;20033;-69
2022/11/10 02:03:30;;;;;;;14.38;2.95;;;13.50;99.90;;;;;;5046127;28;20109;-69
2022/11/10 02:05:56;;;;;;;14.20;3.00;;;13.50;99.90;;;;;;4992146;28;20602;-70
2022/11/10 02:08:24;;;;;;;11.13;2.78;;;13.50;99.90;;;;;;5041758;28;20040;-70
2022/11/10 02:10:49;;;;;;;8.77;2.13;;;13.40;99.90;;;;;;5053360;28;20029;-70
2022/11/10 02:13:15;;;;;;;13.18;2.97;;;13.50;99.90;;;;;;5053484;28;20099;-71
2022/11/10 02:15:41;;;;;;;15.50;3.17;;;13.50;99.90;;;;;;5053320;28;20600;-70
2022/11/10 02:18:07;;;;;;;13.75;2.78;;;13.50;99.90;;;;;;5052307;28;20070;-70
2022/11/10 02:20:33;;;;;;;15.43;3.72;;;13.50;99.90;;;;;;5053172;28;20100;-70
2022/11/10 02:22:58;;;;;;;8.35;2.30;;;13.50;99.90;;;;;;5053308;28;20029;-73
2022/11/10 02:25:29;;;;;;;12.73;2.88;;;13.50;99.90;;;;;;5052197;28;20032;-70
2022/11/10 02:27:54;;;;;;;14.00;3.45;;;13.50;99.90;;;;;;5053107;28;20028;-70
2022/11/10 02:30:20;;;;;;;14.88;3.25;;;13.50;99.90;;;;;;5052618;28;20037;-70
2022/11/10 02:32:45;;;;;;;13.63;3.15;;;13.40;99.90;;;;;;5051930;28;20048;-71
2022/11/10 02:35:11;;;;;;;11.73;2.50;;;13.40;99.90;;;;;;5052991;28;20182;-71
2022/11/10 02:37:36;;;;;;;14.75;3.28;;;13.40;99.90;;;;;;5051877;28;20044;-70
2022/11/10 02:40:03;;;;;;;11.73;2.50;;;13.30;99.90;;;;;;5052971;28;20021;-71
2022/11/10 02:42:28;;;;;;;10.10;2.35;;;13.40;99.90;;;;;;5051874;28;20552;-69
2022/11/10 02:44:54;;;;;;;10.98;2.92;;;13.30;99.90;;;;;;5052604;28;20088;-71
2022/11/10 02:47:20;;;;;;;11.77;2.40;;;13.30;99.90;;;;;;5053121;28;20053;-69
2022/11/10 02:49:45;;;;;;;15.43;2.97;;;13.40;99.90;;;;;;5052729;28;20073;-69
2022/11/10 02:52:11;;;;;;;11.88;2.97;;;13.30;99.90;;;;;;5052819;28;20083;-69
2022/11/10 02:54:37;;;;;;;10.90;2.65;;;13.30;99.90;;;;;;5052846;28;20377;-71
2022/11/10 02:57:02;;;;;;;12.25;3.20;;;13.30;99.90;;;;;;5053011;28;20075;-70
2022/11/10 02:59:28;;;;;;;10.38;2.17;;;13.30;99.90;;;;;;5052761;28;20390;-71
2022/11/10 03:01:53;;;;;;;12.15;2.92;;;13.30;99.90;;;;;;5052654;28;20021;-72
2022/11/10 03:04:19;;;;;;;11.35;3.10;;;13.30;99.90;;;;;;5052421;28;20451;-73
2022/11/10 03:06:45;;;;;;;11.35;2.60;;;13.30;99.90;;;;;;5052805;28;20112;-70
2022/11/10 03:09:10;;;;;;;11.63;3.22;;;13.30;99.90;;;;;;5052683;28;20064;-72
2022/11/10 03:11:36;;;;;;;13.00;2.90;;;13.30;99.90;;;;;;5051435;28;20035;-72
2022/11/10 03:14:02;;;;;;;12.82;2.60;;;13.30;99.90;;;;;;5052506;28;20505;-70
2022/11/10 03:16:28;;;;;;;8.27;2.33;;;13.20;99.90;;;;;;5052722;28;20048;-69
2022/11/10 03:18:53;;;;;;;14.90;2.63;;;13.20;99.90;;;;;;5051563;28;20469;-73
2022/11/10 03:21:19;;;;;;;11.55;2.65;;;13.10;99.90;;;;;;5052620;28;20521;-74
2022/11/10 03:23:45;;;;;;;10.35;2.50;;;13.20;99.90;;;;;;5052312;28;20126;-70
2022/11/10 03:26:10;;;;;;;12.65;2.70;;;13.20;99.90;;;;;;5052719;28;20442;-74
2022/11/10 03:28:36;;;;;;;10.73;2.30;;;13.30;99.90;;;;;;5052510;28;20462;-74
2022/11/10 03:31:01;;;;;;;12.32;3.33;;;13.20;99.90;;;;;;5052357;28;20057;-72
2022/11/10 03:33:27;;;;;;;10.18;2.55;;;13.20;99.90;;;;;;5051299;28;20120;-73
2022/11/10 03:35:52;;;;;;;14.07;2.92;;;13.20;99.90;;;;;;5053673;28;20029;-71
2022/11/10 03:38:18;;;;;;;13.10;2.80;;;13.20;99.90;;;;;;5056465;28;20025;-70
2022/11/10 03:40:43;;;;;;;10.75;2.60;;;13.20;99.90;;;;;;5056393;28;20071;-73
2022/11/10 03:43:10;;;;;;;11.98;2.45;;;13.20;99.90;;;;;;5056065;28;20100;-74
2022/11/10 03:45:36;;;;;;;14.70;2.47;;;13.10;99.90;;;;;;5056847;28;20017;-72
2022/11/10 03:48:02;;;;;;;9.00;1.90;;;13.20;99.90;;;;;;5057331;28;20125;-73
2022/11/10 03:50:27;;;;;;;11.73;2.55;;;13.20;99.90;;;;;;5057909;28;20112;-73
2022/11/10 03:52:53;;;;;;;16.98;2.72;;;13.20;99.90;;;;;;5055167;28;20067;-69
2022/11/10 03:55:18;;;;;;;10.65;2.15;;;13.10;99.90;;;;;;5056467;28;20021;-73
2022/11/10 03:57:44;;;;;;;12.48;2.20;;;13.10;99.90;;;;;;5056123;28;20021;-70
2022/11/10 04:00:11;;;;;;;11.52;2.58;;;13.20;99.90;;;;;;5055678;28;20021;-69
2022/11/10 04:02:38;;;;;;;10.95;2.72;;;13.20;99.90;;;;;;5055868;28;20021;-69
2022/11/10 04:10:40;;;;;;;13.15;2.60;;;13.10;99.90;;;;;;5056121;28;20040;-72
2022/11/10 04:15:51;;;;;;;10.82;2.80;;;13.10;99.90;;;;;;5055726;28;20390;-69
2022/11/10 04:18:19;;;;;;;12.27;2.65;;;13.10;99.90;;;;;;5055740;28;20112;-69
2022/11/10 04:20:48;;;;;;;13.70;2.42;;;13.10;99.90;;;;;;5055471;28;20021;-69
2022/11/10 04:23:27;;;;;;;16.10;2.83;;;13.10;99.90;;;;;;5055580;28;20032;-70
2022/11/10 04:28:45;;;;;;;14.80;2.55;;;13.00;99.90;;;;;;5055758;28;20513;-69
2022/11/10 04:31:12;;;;;;;14.40;3.10;;;13.00;99.90;;;;;;5055176;28;20067;-69
2022/11/10 04:33:38;;;;;;;11.43;2.33;;;13.00;99.90;;;;;;5054175;28;20044;-69
2022/11/10 04:36:04;;;;;;;10.60;2.20;;;13.00;99.90;;;;;;5055212;28;20047;-73
2022/11/10 04:38:30;;;;;;;15.02;3.13;;;13.10;99.90;;;;;;5055319;28;20063;-69
2022/11/10 04:40:56;;;;;;;9.50;2.00;;;13.00;99.90;;;;;;5054884;28;20406;-69
2022/11/10 04:43:21;;;;;;;11.75;2.95;;;13.00;99.90;;;;;;5055212;28;20038;-69
2022/11/10 04:45:47;;;;;;;13.50;2.42;;;13.00;99.90;;;;;;5054540;28;20037;-69
2022/11/10 04:48:12;;;;;;;15.27;2.72;;;13.00;99.90;;;;;;5053805;28;20096;-70
2022/11/10 04:50:38;;;;;;;13.00;3.17;;;13.00;99.90;;;;;;5055099;28;20497;-70
2022/11/10 04:53:03;;;;;;;12.00;2.63;;;13.00;99.90;;;;;;5053401;28;20166;-69
2022/11/10 04:55:29;;;;;;;10.90;2.67;;;13.00;99.90;;;;;;5053909;28;20525;-69
2022/11/10 04:57:55;;;;;;;14.23;3.10;;;13.00;99.90;;;;;;5054928;28;20014;-70
2022/11/10 05:00:20;;;;;;;15.00;3.00;;;12.90;99.90;;;;;;5054888;28;20040;-69
2022/11/10 05:02:46;;;;;;;10.25;2.22;;;13.00;99.90;;;;;;5054576;28;20480;-69
2022/11/10 05:05:11;;;;;;;12.25;3.08;;;12.90;99.90;;;;;;5054813;28;20496;-69
2022/11/10 05:07:37;;;;;;;9.10;2.53;;;12.90;99.90;;;;;;5054746;28;20466;-71
2022/11/10 05:10:03;;;;;;;9.50;2.42;;;12.90;99.90;;;;;;5054451;28;20445;-69
2022/11/10 05:12:28;;;;;;;15.07;2.90;;;12.90;99.90;;;;;;5054432;28;20021;-70
2022/11/10 05:14:54;;;;;;;14.18;2.83;;;12.90;99.90;;;;;;5054710;28;20469;-70
2022/11/10 05:17:20;;;;;;;17.10;3.47;;;12.90;99.90;;;;;;5054546;28;20098;-69
2022/11/10 05:19:46;;;;;;;10.18;3.15;;;12.90;99.90;;;;;;5054645;28;20409;-69
2022/11/10 05:22:12;;;;;;;10.05;2.58;;;12.80;99.90;;;;;;5054144;28;20079;-69
2022/11/10 05:24:37;;;;;;;14.02;3.25;;;12.80;99.90;;;;;;5054206;28;20040;-69
2022/11/10 05:27:03;;;;;;;18.45;3.22;;;12.80;99.90;;;;;;5054297;28;20069;-71
2022/11/10 05:29:29;;;;;;;9.32;2.63;;;12.80;99.90;;;;;;5054312;28;20032;-70
2022/11/10 05:31:54;;;;;;;14.43;3.38;;;12.90;99.90;;;;;;5054088;28;20032;-70
2022/11/10 05:34:20;;;;;;;17.15;3.70;;;12.90;99.90;;;;;;5054128;28;20029;-70
2022/11/10 05:36:45;;;;;;;13.18;2.80;;;12.90;99.90;;;;;;5054230;28;20024;-69
2022/11/10 05:39:11;;;;;;;17.73;4.05;;;12.80;99.90;;;;;;5053510;28;20050;-69
2022/11/10 05:41:36;;;;;;;11.40;2.97;;;12.80;99.90;;;;;;5054448;28;20032;-70
2022/11/10 05:44:02;;;;;;;11.30;3.30;;;12.80;99.90;;;;;;5053871;28;20028;-69
2022/11/10 05:46:28;;;;;;;14.88;3.88;;;12.80;99.90;;;;;;5053907;28;20082;-72
2022/11/10 05:48:53;;;;;;;8.90;2.95;;;12.80;99.90;;;;;;5053794;28;20041;-70
2022/11/10 05:51:19;;;;;;;13.55;3.22;;;12.80;99.90;;;;;;5052453;28;20040;-69
2022/11/10 05:53:44;;;;;;;10.27;2.97;;;12.80;99.90;;;;;;5052314;28;20030;-70
2022/11/10 05:56:10;;;;;;;10.98;3.30;;;12.80;99.90;;;;;;5053919;28;20083;-71
2022/11/10 05:58:35;;;;;;;11.80;3.25;;;12.70;99.90;;;;;;5053803;28;20025;-72
2022/11/10 06:01:01;;;;;;;13.00;3.42;;;12.80;99.90;;;;;;5050192;28;20013;-69
2022/11/10 06:03:26;;;;;;;12.77;3.17;;;12.80;99.70;;;;;;5048972;28;20040;-70
2022/11/10 06:05:52;;;;;;;14.10;3.40;;;12.80;99.90;;;;;;5053230;28;20055;-71
2022/11/10 06:08:18;;;;;;;12.55;3.08;;;12.80;99.20;;;;;;5046907;28;20028;-72
2022/11/10 06:10:44;;;;;;;14.27;4.18;;;12.90;99.20;;;;;;5045739;28;20029;-70
2022/11/10 06:13:09;;;;;;;13.05;3.92;;;12.90;99.30;;;;;;5050058;28;20043;-73
2022/11/10 06:15:35;;;;;;;14.57;3.50;;;12.90;99.50;;;;;;5048947;28;20482;-72
2022/11/10 06:18:01;;;;;;;16.13;2.88;;;12.80;99.90;;;;;;5051146;28;20017;-68
2022/11/10 06:20:27;;;;;;;21.60;3.80;;;12.90;99.90;;;;;;5043536;28;20501;-71
2022/11/10 06:22:58;;;;;;;17.35;3.10;;;13.00;99.90;;;;;;5033060;28;20036;-68
2022/11/10 06:25:24;;;;;;;14.90;3.47;;;13.10;99.90;;;;;;5047861;28;20059;-67
2022/11/10 06:27:50;;;;;;;17.02;4.18;;;13.10;99.90;;;;;;5045359;28;20135;-70
2022/11/10 06:30:16;;;;;;;18.83;4.00;;;13.10;99.90;;;;;;5040808;28;20163;-67
2022/11/10 06:32:43;;;;;;;12.45;3.35;;;13.10;99.90;;;;;;5042666;28;20116;-68
2022/11/10 06:35:09;;;;;;;17.75;4.00;;;13.00;99.90;;;;;;5039054;28;20498;-67
2022/11/10 06:37:34;;;;;;;15.93;3.60;;;13.10;99.90;;;;;;5051254;28;20537;-68
2022/11/10 06:40:00;;;;;;;23.23;4.05;;;13.00;99.90;;;;;;5057520;28;20025;-70
2022/11/10 06:42:26;;;;;;;14.20;3.90;;;13.00;99.90;;;;;;5057178;28;20502;-70
2022/11/10 06:44:51;;;;;;;14.02;3.38;;;13.00;99.90;;;;;;5047176;28;20029;-69
2022/11/10 06:47:17;;;;;;;23.63;4.20;;;13.00;99.90;;;;;;5053913;28;20028;-68
2022/11/10 06:49:42;;;;;;;18.55;3.78;;;13.00;99.90;;;;;;5046266;28;20038;-69
2022/11/10 06:52:08;;;;;;;15.40;3.90;;;13.10;99.90;;;;;;5043161;28;20096;-69
2022/11/10 06:54:33;;;;;;;18.50;4.20;;;13.00;99.90;;;;;;5043675;28;20025;-68
2022/11/10 06:56:59;;;;;;;18.02;4.45;;;13.00;99.90;;;;;;5045874;28;20043;-68
2022/11/10 06:59:24;;;;;;;20.08;5.45;;;13.00;99.90;;;;;;5052981;28;20133;-66
2022/11/10 07:01:50;;;;;;;25.20;6.30;;;13.00;99.90;;;;;;5044762;28;20021;-65
2022/11/10 07:04:16;;;;;;;34.15;5.88;;;13.10;99.90;;;;;;5045091;28;20485;-65
2022/11/10 07:06:41;;;;;;;21.75;5.75;;;13.10;99.90;;;;;;5037466;28;20119;-70
2022/11/10 07:09:07;;;;;;;19.17;4.20;;;13.10;99.90;;;;;;5049452;28;20094;-69
2022/11/10 07:11:33;;;;;;;15.35;3.85;;;13.10;99.90;;;;;;5051455;28;20735;-70
2022/11/10 07:13:58;;;;;;;19.35;4.82;;;13.10;99.90;;;;;;5062953;28;20032;-66
2022/11/10 07:16:24;;;;;;;20.35;4.32;;;13.00;99.90;;;;;;5043282;28;20382;-69
2022/11/10 07:18:49;;;;;;;21.92;4.50;;;13.00;99.90;;;;;;5036602;28;20040;-68
2022/11/10 07:21:15;;;;;;;21.77;3.97;;;13.00;99.90;;;;;;5062652;28;20469;-71
2022/11/10 07:23:40;;;;;;;22.95;4.22;;;13.10;99.90;;;;;;5060200;28;20028;-68
2022/11/10 07:26:06;;;;;;;18.95;4.97;;;13.10;99.90;;;;;;5053911;28;20537;-69
2022/11/10 07:28:32;;;;;;;19.75;4.20;;;13.10;99.90;;;;;;5055106;28;20049;-69
2022/11/10 07:31:01;;;;;;;19.33;3.92;;;13.10;99.90;;;;;;5056338;28;20027;-69
2022/11/10 07:33:27;;;;;;;16.20;4.15;;;13.10;99.90;;;;;;5055799;28;20508;-70
2022/11/10 07:35:56;;;;;;;12.35;4.07;;;13.00;99.90;;;;;;5058789;28;20060;-68
2022/11/10 07:38:21;;;;;;;11.77;3.28;;;12.70;99.90;;;;;;5053075;28;20079;-69
2022/11/10 07:40:54;;;;;;;14.45;3.47;;;12.60;99.90;;;;;;5055270;28;20025;-68
2022/11/10 07:43:22;;;;;;;15.07;3.53;;;12.50;99.90;;;;;;5069719;28;20552;-69
2022/11/10 07:45:52;;;;;;;15.38;4.15;;;12.40;99.90;;;;;;5059414;28;20040;-68
2022/11/10 07:48:18;;;;;;;15.93;3.65;;;12.50;99.90;;;;;;5051516;28;20064;-69
2022/11/10 07:50:44;;;;;;;17.52;3.58;;;12.50;99.90;;;;;;5051994;28;20021;-68
2022/11/10 07:53:12;;;;;;;13.77;3.83;;;12.60;99.90;;;;;;5051354;28;20056;-66
2022/11/10 07:55:39;;;;;;;8.85;2.78;;;12.60;99.90;;;;;;5061185;28;20029;-68
2022/11/10 07:58:06;;;;;;;20.85;4.30;;;12.60;99.90;;;;;;5057147;28;20024;-67
2022/11/10 08:00:32;;;;;;;15.45;3.60;;;12.70;99.90;;;;;;5054633;28;20053;-67
2022/11/10 08:03:05;;;;;;;21.50;4.28;;;12.70;99.90;;;;;;5053737;28;20029;-68
2022/11/10 08:05:31;;;;;;;14.90;4.03;;;12.60;99.90;;;;;;5050696;28;20082;-68
2022/11/10 08:07:57;;;;;;;17.58;3.78;;;12.60;99.90;;;;;;5043615;28;20390;-67
2022/11/10 08:10:23;;;;;;;12.43;3.10;;;12.60;99.90;;;;;;5035611;28;20482;-67
2022/11/10 08:12:55;;;;;;;9.93;3.15;;;12.70;99.90;;;;;;5044918;28;20045;-67
2022/11/10 08:15:21;;;;;;;10.93;3.63;;;12.70;99.90;;;;;;5054516;28;20055;-67
2022/11/10 08:17:47;;;;;;;8.18;2.88;;;12.70;99.90;;;;;;5054791;28;20025;-68
2022/11/10 08:20:12;;;;;;;11.68;3.33;;;12.80;99.90;;;;;;5042605;28;20029;-67
2022/11/10 08:22:38;;;;;;;12.35;3.13;;;12.90;99.90;;;;;;5056002;28;20029;-67
2022/11/10 08:25:04;;;;;;;13.80;3.05;;;12.90;99.90;;;;;;5039072;28;20093;-68
2022/11/10 08:27:29;;;;;;;13.20;3.80;;;12.90;99.90;;;;;;5044470;28;20177;-68
2022/11/10 08:29:55;;;;;;;12.15;3.13;;;12.80;99.90;;;;;;5055136;28;20040;-68
2022/11/10 08:32:21;;;;;;;11.98;3.42;;;12.90;99.90;;;;;;5055067;28;20049;-67
2022/11/10 08:34:47;;;;;;;11.57;3.80;;;12.90;99.90;;;;;;5057612;28;20122;-69
2022/11/10 08:37:12;;;;;;;18.00;3.90;;;12.90;99.90;;;;;;5052328;28;20040;-69
2022/11/10 08:39:38;;;;;;;14.85;3.72;;;12.70;99.90;;;;;;5055133;28;20025;-70
2022/11/10 08:42:05;;;;;;;20.40;4.20;;;12.60;99.90;;;;;;5048412;28;20021;-69
2022/11/10 08:44:30;;;;;;;9.05;3.65;;;12.60;99.90;;;;;;5053117;28;20021;-69
2022/11/10 08:46:56;;;;;;;11.93;3.45;;;12.50;99.90;;;;;;5054050;28;20500;-69
2022/11/10 08:49:21;;;;;;;11.02;3.30;;;12.50;99.90;;;;;;5042443;28;20036;-70
2022/11/10 08:51:47;;;;;;;9.07;2.97;;;12.60;99.90;;;;;;5060442;28;20059;-67
2022/11/10 08:54:12;;;;;;;9.20;3.10;;;12.80;99.90;;;;;;5068062;28;20405;-67
2022/11/10 08:56:38;;;;;;;15.02;3.85;;;12.90;99.90;;;;;;5051976;28;20480;-68
2022/11/10 08:59:03;;;;;;;10.23;3.08;;;13.00;99.90;;;;;;5048142;28;20086;-67
2022/11/10 09:01:29;;;;;;;13.10;3.75;;;13.00;99.90;;;;;;5054377;28;20098;-67
2022/11/10 09:03:54;;;;;;;10.90;3.10;;;13.10;99.90;;;;;;5049413;28;20115;-68
2022/11/10 09:06:20;;;;;;;15.07;3.20;;;13.10;99.90;;;;;;5048735;28;20530;-67
2022/11/10 09:08:45;;;;;;;11.55;3.40;;;13.10;99.90;;;;;;5047234;28;20047;-69
2022/11/10 09:11:11;;;;;;;16.30;3.28;;;13.10;99.90;;;;;;5053076;28;20027;-67
2022/11/10 09:13:36;;;;;;;14.85;3.95;;;13.10;99.90;;;;;;5054400;28;20029;-68
2022/11/10 09:16:04;;;;;;;10.10;2.95;;;13.10;99.90;;;;;;5042706;28;20035;-69
2022/11/10 09:18:30;;;;;;;15.48;3.92;;;13.10;99.90;;;;;;5035246;28;20033;-68
2022/11/10 09:20:55;;;;;;;19.92;3.28;;;13.20;99.90;;;;;;5049323;28;20031;-73
2022/11/10 09:23:23;;;;;;;15.10;4.28;;;13.40;99.90;;;;;;5049923;28;20108;-69
2022/11/10 09:25:53;;;;;;;22.77;4.80;;;13.60;99.90;;;;;;5042645;28;20033;-68
2022/11/10 09:28:20;;;;;;;17.65;3.65;;;13.60;99.90;;;;;;5059836;28;20078;-74
2022/11/10 09:30:47;;;;;;;27.60;4.35;;;13.70;99.90;;;;;;5039882;28;20117;-74
2022/11/10 09:33:13;;;;;;;17.52;4.05;;;13.80;99.90;;;;;;5041450;28;20021;-74
2022/11/10 09:35:39;;;;;;;17.67;4.00;;;13.80;99.90;;;;;;5047231;28;20047;-72
2022/11/10 09:38:05;;;;;;;20.95;4.00;;;13.80;99.90;;;;;;5033513;28;20017;-74
2022/11/10 09:41:02;;;;;;;21.33;3.58;;;13.90;99.90;;;;;;5034001;28;20044;-74
2022/11/10 09:43:40;;;;;;;13.82;3.50;;;13.90;99.90;;;;;;5034649;28;20513;-73
2022/11/10 09:46:16;;;;;;;16.38;4.00;;;14.10;99.90;;;;;;5042191;28;20040;-74
2022/11/10 09:48:49;;;;;;;14.73;3.15;;;14.10;99.90;;;;;;5041056;28;20029;-72
2022/11/10 09:51:23;;;;;;;14.85;2.95;;;14.20;99.90;;;;;;5049081;28;20025;-73
2022/11/10 09:53:50;;;;;;;17.67;3.63;;;14.20;99.90;;;;;;5042948;28;20485;-70
2022/11/10 09:56:26;;;;;;;12.65;4.30;;;14.20;99.90;;;;;;5047983;28;20029;-68
2022/11/10 09:58:52;;;;;;;18.05;3.50;;;14.30;99.90;;;;;;5033817;28;20040;-68
2022/11/10 10:01:24;;;;;;;13.98;3.25;;;14.40;99.90;;;;;;5039296;28;20021;-69
2022/11/10 10:03:59;;;;;;;13.93;3.78;;;14.40;99.90;;;;;;5045626;28;20112;-70
2022/11/10 10:06:25;;;;;;;13.93;3.60;;;14.40;99.90;;;;;;5048915;28;20043;-69
2022/11/10 10:09:19;;;;;;;11.45;2.72;;;14.40;99.90;;;;;;5033033;28;20033;-68
2022/11/10 10:11:48;;;;;;;9.68;3.40;;;14.40;99.90;;;;;;5046966;28;20017;-68
2022/11/10 10:14:36;;;;;;;11.77;3.33;;;14.50;99.90;;;;;;5032563;28;20035;-69
2022/11/10 10:17:33;;;;;;;13.90;2.80;;;14.50;99.90;;;;;;5040458;28;20276;-71
2022/11/10 10:20:11;;;;;;;12.48;3.28;;;14.70;99.90;;;;;;5041870;28;20525;-70
2022/11/10 10:23:05;;;;;;;15.13;2.97;;;14.70;99.90;;;;;;5063664;28;20082;-70
2022/11/10 10:25:31;;;;;;;23.00;3.97;;;14.60;99.90;;;;;;5047273;28;20105;-70
2022/11/10 10:28:11;;;;;;;19.15;3.78;;;14.70;99.90;;;;;;5053026;28;20108;-72
2022/11/10 10:30:36;;;;;;;22.05;3.75;;;14.70;99.90;;;;;;5052424;28;20033;-72
2022/11/10 10:33:22;;;;;;;19.42;3.15;;;14.70;99.90;;;;;;5052891;28;20027;-71
2022/11/10 10:35:49;;;;;;;19.58;3.42;;;14.70;99.90;;;;;;5052595;28;20047;-72
2022/11/10 10:38:30;;;;;;;17.50;3.15;;;14.80;99.90;;;;;;5052786;28;20075;-72
2022/11/10 10:41:09;;;;;;;12.02;2.97;;;14.80;99.90;;;;;;5053171;28;20021;-72
2022/11/10 10:43:35;;;;;;;16.50;3.00;;;14.80;99.90;;;;;;5050032;28;20457;-71
2022/11/10 10:46:08;;;;;;;9.93;2.65;;;14.80;99.90;;;;;;5056563;28;20035;-71
2022/11/10 10:48:34;;;;;;;10.32;3.08;;;14.90;99.90;;;;;;5072811;28;20071;-71
2022/11/10 10:50:59;;;;;;;21.98;3.45;;;14.80;99.90;;;;;;5071301;28;20052;-70
2022/11/10 10:53:25;;;;;;;12.63;2.88;;;14.80;99.90;;;;;;5072943;28;20020;-72
2022/11/10 10:56:00;;;;;;;14.20;3.22;;;14.90;99.90;;;;;;5065479;28;20017;-73
2022/11/10 10:58:35;;;;;;;14.45;3.20;;;14.80;99.90;;;;;;5052602;28;20021;-69
2022/11/10 11:01:13;;;;;;;18.77;3.80;;;14.90;99.90;;;;;;5052779;28;20048;-69
2022/11/10 11:03:52;;;;;;;22.90;2.95;;;14.80;99.90;;;;;;5052686;28;20500;-71
2022/11/10 11:06:32;;;;;;;12.18;3.45;;;14.80;99.90;;;;;;5053236;28;20051;-72
2022/11/10 11:09:14;;;;;;;17.42;4.53;;;14.90;99.90;;;;;;5071759;28;20031;-70
2022/11/10 11:11:42;;;;;;;9.25;2.55;;;14.90;99.90;;;;;;5056986;28;20051;-71
2022/11/10 11:14:23;;;;;;;16.33;3.65;;;14.90;99.90;;;;;;5050202;28;20055;-71
2022/11/10 11:16:55;;;;;;;15.88;2.90;;;14.90;99.90;;;;;;5032374;28;20364;-72
2022/11/10 11:19:22;;;;;;;;;;;14.90;99.90;;;;;;5032516;28;20036;-75
2022/11/10 11:22:06;;;;;;;17.02;3.65;;;15.00;99.90;;;;;;5030479;28;19905;-76
2022/11/10 11:24:42;;;;;;;17.20;3.17;;;15.40;99.50;;;;;;5036649;28;20040;-75
2022/11/10 11:27:28;;;;;;;15.60;2.97;;;15.60;99.20;;;;;;5046648;28;20013;-76
2022/11/10 11:29:54;;;;;;;14.43;3.30;;;15.70;98.90;;;;;;5063476;28;20485;-75
2022/11/10 11:32:32;;;;;;;20.08;3.42;;;15.80;98.60;;;;;;5055644;28;20099;-77
2022/11/10 11:35:16;;;;;;;18.83;3.42;;;15.80;98.50;;;;;;5054254;28;20364;-76
2022/11/10 11:38:09;;;;;;;23.27;3.33;;;16.00;98.40;;;;;;5057296;28;20044;-76
2022/11/10 11:40:45;;;;;;;17.38;3.40;;;16.00;98.10;;;;;;5053467;28;20025;-80
2022/11/10 11:43:23;;;;;;;16.98;2.97;;;16.00;98.10;;;;;;5056905;28;20021;-79
2022/11/10 11:45:58;;;;;;;16.42;3.20;;;16.10;97.90;;;;;;5058929;28;20504;-81
2022/11/10 11:48:29;;;;;;;17.73;3.20;;;16.20;97.90;;;;;;5050650;28;20385;-75
2022/11/10 11:51:31;;;;;;;17.50;5.27;;;16.20;97.70;;;;;;5046030;28;20465;-73
2022/11/10 11:54:34;;;;;;;22.65;3.67;;;16.20;97.80;;;;;;4998911;28;20127;-74
2022/11/10 11:57:16;;;;;;;19.20;3.00;;;16.20;98.00;;;;;;5041859;28;20029;-74
2022/11/10 12:00:23;;;;;;;23.83;4.70;;;16.30;98.00;;;;;;5070953;28;20028;-74
2022/11/10 12:03:07;;;;;;;20.85;3.70;;;16.30;97.80;;;;;;5008893;28;20391;-74
2022/11/10 12:05:36;;;;;;;17.00;2.72;;;16.30;97.90;;;;;;5001138;28;20038;-74
2022/11/10 12:08:10;;;;;;;22.75;3.70;;;16.30;97.90;;;;;;5036140;28;20119;-74
2022/11/10 12:10:56;;;;;;;20.88;3.97;;;16.30;97.90;;;;;;5058903;28;20044;-76
2022/11/10 12:13:51;;;;;;;15.73;3.00;;;16.30;97.60;;;;;;5058479;28;20033;-74
2022/11/10 12:16:25;;;;;;;8.43;2.30;;;16.00;97.60;;;;;;5067372;28;20118;-74
2022/11/10 12:19:05;;;;;;;13.75;3.05;;;15.90;97.80;;;;;;5048059;28;20540;-75
2022/11/10 12:21:56;;;;;;;14.18;2.78;;;15.90;97.90;;;;;;5051629;28;20093;-73
2022/11/10 12:24:51;;;;;;;10.50;2.10;;;15.80;98.10;;;;;;5053076;28;20025;-73
2022/11/10 12:27:29;;;;;;;13.50;2.40;;;15.80;97.90;;;;;;5052748;28;20489;-73
2022/11/10 12:30:00;;;;;;;16.65;2.95;;;15.80;97.80;;;;;;5054162;28;20029;-74
2022/11/10 12:32:32;;;;;;;15.30;2.65;;;15.80;97.90;;;;;;5055224;28;20025;-73
2022/11/10 12:35:06;;;;;;;10.55;2.38;;;15.80;98.00;;;;;;5053150;28;20037;-74
2022/11/10 12:37:37;;;;;;;29.00;3.15;;;15.80;97.90;;;;;;5041737;28;20051;-74
2022/11/10 12:40:18;;;;;;;16.73;3.33;;;15.80;98.10;;;;;;5047007;28;20029;-73
2022/11/10 12:42:50;;;;;;;14.88;2.47;;;15.80;98.10;;;;;;5055294;28;20021;-74
2022/11/10 12:45:31;;;;;;;12.30;2.63;;;15.80;98.20;;;;;;5054835;28;20048;-73
2022/11/10 12:47:58;;;;;;;14.90;2.97;;;15.80;98.10;;;;;;5049303;28;20467;-72
2022/11/10 12:50:26;;;;;;;18.65;3.22;;;15.80;97.90;;;;;;5051794;28;20040;-72
2022/11/10 12:52:56;;;;;;;28.38;3.78;;;15.90;97.80;;;;;;5045391;28;20032;-73
2022/11/10 12:55:34;;;;;;;15.95;2.65;;;15.80;98.00;;;;;;5052694;28;20485;-73
2022/11/10 12:58:02;;;;;;;19.88;2.88;;;15.90;97.80;;;;;;5048283;28;20589;-74
2022/11/10 13:00:36;;;;;;;13.52;1.92;;;15.90;97.90;;;;;;5051718;28;20021;-73
2022/11/10 13:03:02;;;;;;;18.10;2.17;;;16.00;97.50;;;;;;5065172;28;20024;-74
2022/11/10 13:05:40;;;;;;;21.63;3.30;;;15.90;97.90;;;;;;5056996;28;20087;-74